KBDE/BDE METAR and TAF weather

Enter ICAO airport designator
Station Type Date Time Source
KBDE METAR 2019/02/23 16:53 UTC NOAA

KBDE 231653Z AUTO 15006KT 1SM -SN BR VV015 M04/M06 A2991 RMK AO2 SLP150 P0001 T10391056


Station Type Date Time Source
KBDE Decoded METAR 2019/02/23 16:53 UTC NOAA

BAUDETTE INTERNATIONAL AIRPORT, MN, United States (KBDE) 48-44N 94-37W 329M
Feb 23, 2019 - 11:53 AM EST / 2019.02.23 1653 UTC
Wind: from the SSE (150 degrees) at 7 MPH (6 KT):0
Visibility: 1 mile(s):0
Sky conditions: obscured
Weather: light snow; mist
Precipitation last hour: 0.01 inches
Temperature: 25.0 F (-3.9 C)
Windchill: 17 F (-8 C):1
Dew Point: 21.9 F (-5.6 C)
Relative Humidity: 87%
Pressure (altimeter): 29.91 in. Hg (1012 hPa)
ob: KBDE 231653Z AUTO 15006KT 1SM -SN BR VV015 M04/M06 A2991 RMK AO2 SLP150 P0001 T10391056
cycle: 17

Station Type Date Time Source
KBDE TAF UTC NOAA

Error!


Example: see airport list